Grand Junction, CO

8:22 PM MDT on May 26, 2015 (GMT -0600)
Walker | | Change Station
CLOSE
Current Station
Airport
Location: Grand Junction,
Elevation: 4856 ft
Nearby Weather Stations

Elev 4856 ft 39.13 °N, 108.54 °W | Updated 3 minutes ago

Mostly Cloudy
Mostly Cloudy
58 °F
Feels Like 58 °F
N
17
Wind Variable Wind from ESE
Gusts 26 mph

Today
High -- | Low -- °F
--% Chance of Precip.
Yesterday
High -- | Low -- °F
Precip. -- in
5:53 AM 8:29 PM
Waxing Gibbous, 63% visible
Pressure 30.05 in
Visibility 10.0 miles
Clouds Overcast 7500 ft
Dew Point 45 °F
Humidity 62%
Rainfall 0.05 in
Snow Depth Not available.
UV 0 out of 12
Pollen 7.60 out of 12
Air Quality Not available.
Flu Activity Sporadic
SPECI KGJT 270219Z 12015G23KT 10SM VCTS OVC075 14/07 A3005 RMK AO2 LTG DSNT W AND NW T01440072

More Conditions Fewer Conditions

Pressure 30.05 in
Visibility 10.0 miles
Clouds Overcast 7500 ft
Dew Point 45 °F
Humidity 62%
Rainfall 0.05 in
Snow Depth Not available.
UV 0 out of 12
Pollen 7.60 out of 12
Air Quality Not available.
Flu Activity Sporadic
SPECI KGJT 270219Z 12015G23KT 10SM VCTS OVC075 14/07 A3005 RMK AO2 LTG DSNT W AND NW T01440072

More Conditions Fewer Conditions

Nowcast | as of 8:10 PM MDT on May 26, 2015

At 809 PM MDT...Doppler radar indicated a line of thunderstorms... along a line extending from 40 miles southwest of Rangely to 9 miles north of Palisade moving northeast at 30 mph. Passage of these storms will bring brief heavy rain and gusty winds of 30 to 35 mph along with some pea sized hail. Locations impacted include... Grand Junction...Fruita...Parachute...De Beque...Battlement Mesa... Loma...Mack...Redlands...Cameo...Fruitvale...Clifton and Orchard Mesa.

×

10-Day Weather Forecast

Almanac

Astronomy

May. 26, 2015 Rise Set
Actual Time
Civil Twilight
Nautical Twilight
Astronomical Twilight
Moon
Length of Visible Light
Length of Day
Tomorrow will be .
, % of the Moon is Illuminated

Today's Extremes

State Highs State Lows

Community

WunderPhotos

Upload Photos

1,824,562 photos uploaded!

WunderBlogs® & News

Nearby

Air Quality

  Air Quality AQ Index Pollutant
Not available.

Snow Depth

Station Depth Elevation

Earthquake Activity

City Distance Mag. Time & Date
Minimum magnitude displayed is 2.5.

Coastal Water Temperatures

Place Temperature

Stations

Nearby Weather Stations

Station Location Temp. Windchill Dew Point Humidity Wind Precip. Elev Updated Type